sensor_id;sensor_type;location;lat;lon;timestamp;pressure;altitude;pressure_sealevel;temperature;humidity
58385;BME280;44185;47.844;8.966;2022-11-04T00:01:57;95404.81;;;8.19;100.00
58385;BME280;44185;47.844;8.966;2022-11-04T00:04:24;95408.81;;;8.14;100.00
58385;BME280;44185;47.844;8.966;2022-11-04T00:06:50;95407.72;;;8.16;100.00
58385;BME280;44185;47.844;8.966;2022-11-04T00:09:18;95408.81;;;8.14;100.00
58385;BME280;44185;47.844;8.966;2022-11-04T00:11:43;95411.88;;;8.09;100.00
58385;BME280;44185;47.844;8.966;2022-11-04T00:14:10;95415.19;;;8.11;100.00
58385;BME280;44185;47.844;8.966;2022-11-04T00:16:37;95421.56;;;8.08;100.00
58385;BME280;44185;47.844;8.966;2022-11-04T00:19:02;95406.34;;;8.12;100.00
58385;BME280;44185;47.844;8.966;2022-11-04T00:21:28;95397.44;;;8.13;100.00
58385;BME280;44185;47.844;8.966;2022-11-04T00:23:53;95399.13;;;8.14;100.00
58385;BME280;44185;47.844;8.966;2022-11-04T00:26:19;95384.16;;;8.15;100.00
58385;BME280;44185;47.844;8.966;2022-11-04T00:28:44;95375.53;;;8.12;100.00
58385;BME280;44185;47.844;8.966;2022-11-04T00:31:10;95387.16;;;8.10;100.00
58385;BME280;44185;47.844;8.966;2022-11-04T00:33:36;95389.81;;;8.10;100.00
58385;BME280;44185;47.844;8.966;2022-11-04T00:36:02;95394.66;;;8.05;100.00
58385;BME280;44185;47.844;8.966;2022-11-04T00:38:27;95406.03;;;8.05;100.00
58385;BME280;44185;47.844;8.966;2022-11-04T00:40:53;95411.31;;;8.05;100.00
58385;BME280;44185;47.844;8.966;2022-11-04T00:43:18;95419.47;;;8.02;100.00
58385;BME280;44185;47.844;8.966;2022-11-04T00:45:44;95417.25;;;8.07;100.00
58385;BME280;44185;47.844;8.966;2022-11-04T00:48:09;95411.72;;;8.10;100.00
58385;BME280;44185;47.844;8.966;2022-11-04T00:50:36;95410.88;;;8.10;100.00
58385;BME280;44185;47.844;8.966;2022-11-04T00:53:03;95419.91;;;8.07;100.00
58385;BME280;44185;47.844;8.966;2022-11-04T00:55:28;95420.75;;;8.08;100.00
58385;BME280;44185;47.844;8.966;2022-11-04T00:57:54;95420.06;;;8.06;100.00
58385;BME280;44185;47.844;8.966;2022-11-04T01:00:20;95411.03;;;8.08;100.00
58385;BME280;44185;47.844;8.966;2022-11-04T01:02:45;95418.53;;;8.13;100.00
58385;BME280;44185;47.844;8.966;2022-11-04T01:05:11;95410.78;;;8.11;100.00
58385;BME280;44185;47.844;8.966;2022-11-04T01:07:38;95423.63;;;8.05;100.00
58385;BME280;44185;47.844;8.966;2022-11-04T01:10:04;95419.63;;;8.00;100.00
58385;BME280;44185;47.844;8.966;2022-11-04T01:12:30;95401.19;;;8.00;100.00
58385;BME280;44185;47.844;8.966;2022-11-04T01:14:55;95410.63;;;7.93;100.00
58385;BME280;44185;47.844;8.966;2022-11-04T01:17:21;95401.88;;;7.93;100.00
58385;BME280;44185;47.844;8.966;2022-11-04T01:19:46;95399.09;;;7.94;100.00
58385;BME280;44185;47.844;8.966;2022-11-04T01:22:12;95393.53;;;7.87;100.00
58385;BME280;44185;47.844;8.966;2022-11-04T01:24:39;95385.22;;;7.92;100.00
58385;BME280;44185;47.844;8.966;2022-11-04T01:27:04;95375.22;;;7.86;100.00
58385;BME280;44185;47.844;8.966;2022-11-04T01:29:29;95377.75;;;7.87;100.00
58385;BME280;44185;47.844;8.966;2022-11-04T01:31:55;95386.88;;;7.83;100.00
58385;BME280;44185;47.844;8.966;2022-11-04T01:34:20;95395.59;;;7.84;100.00
58385;BME280;44185;47.844;8.966;2022-11-04T01:36:46;95392.53;;;7.78;100.00
58385;BME280;44185;47.844;8.966;2022-11-04T01:39:11;95397.13;;;7.76;100.00
58385;BME280;44185;47.844;8.966;2022-11-04T01:41:38;95400.88;;;7.74;100.00
58385;BME280;44185;47.844;8.966;2022-11-04T01:47:14;95405.56;;;7.70;100.00
58385;BME280;44185;47.844;8.966;2022-11-04T01:49:41;95402.66;;;7.63;100.00
58385;BME280;44185;47.844;8.966;2022-11-04T01:52:11;95410.44;;;7.75;100.00
58385;BME280;44185;47.844;8.966;2022-11-04T01:54:39;95404.19;;;7.66;100.00
58385;BME280;44185;47.844;8.966;2022-11-04T01:57:08;95408.34;;;7.68;100.00
58385;BME280;44185;47.844;8.966;2022-11-04T01:59:39;95402.06;;;7.60;100.00
58385;BME280;44185;47.844;8.966;2022-11-04T02:02:06;95393.06;;;7.62;100.00
58385;BME280;44185;47.844;8.966;2022-11-04T02:04:33;95395.84;;;7.61;100.00
58385;BME280;44185;47.844;8.966;2022-11-04T02:07:00;95402.22;;;7.58;100.00
58385;BME280;44185;47.844;8.966;2022-11-04T02:09:28;95400.13;;;7.62;100.00
58385;BME280;44185;47.844;8.966;2022-11-04T02:11:55;95395.69;;;7.52;100.00
58385;BME280;44185;47.844;8.966;2022-11-04T02:14:20;95384.47;;;7.50;100.00
58385;BME280;44185;47.844;8.966;2022-11-04T02:16:47;95385.00;;;7.54;100.00
58385;BME280;44185;47.844;8.966;2022-11-04T02:19:29;95382.34;;;7.44;100.00
58385;BME280;44185;47.844;8.966;2022-11-04T02:22:25;95377.09;;;7.44;100.00
58385;BME280;44185;47.844;8.966;2022-11-04T02:25:11;95372.25;;;7.49;100.00
58385;BME280;44185;47.844;8.966;2022-11-04T02:27:52;95368.66;;;7.40;100.00
58385;BME280;44185;47.844;8.966;2022-11-04T02:30:32;95361.97;;;7.36;100.00
58385;BME280;44185;47.844;8.966;2022-11-04T02:33:10;95359.06;;;7.39;100.00
58385;BME280;44185;47.844;8.966;2022-11-04T02:35:43;95354.50;;;7.41;100.00
58385;BME280;44185;47.844;8.966;2022-11-04T02:38:23;95346.16;;;7.36;100.00
58385;BME280;44185;47.844;8.966;2022-11-04T02:40:59;95341.97;;;7.23;100.00
58385;BME280;44185;47.844;8.966;2022-11-04T02:43:32;95349.03;;;7.23;100.00
58385;BME280;44185;47.844;8.966;2022-11-04T02:46:04;95350.72;;;7.24;100.00
58385;BME280;44185;47.844;8.966;2022-11-04T02:48:36;95356.50;;;7.18;100.00
58385;BME280;44185;47.844;8.966;2022-11-04T02:51:06;95358.03;;;7.20;100.00
58385;BME280;44185;47.844;8.966;2022-11-04T02:53:37;95368.16;;;7.25;100.00
58385;BME280;44185;47.844;8.966;2022-11-04T02:56:06;95359.28;;;7.16;100.00
58385;BME280;44185;47.844;8.966;2022-11-04T02:58:36;95358.03;;;7.20;100.00
58385;BME280;44185;47.844;8.966;2022-11-04T03:01:06;95345.31;;;7.26;100.00
58385;BME280;44185;47.844;8.966;2022-11-04T03:03:39;95352.91;;;7.19;100.00
58385;BME280;44185;47.844;8.966;2022-11-04T03:06:07;95361.91;;;7.16;100.00
58385;BME280;44185;47.844;8.966;2022-11-04T03:08:37;95372.28;;;7.18;100.00
58385;BME280;44185;47.844;8.966;2022-11-04T03:11:09;95365.50;;;7.15;100.00
58385;BME280;44185;47.844;8.966;2022-11-04T03:13:39;95368.81;;;7.17;100.00
58385;BME280;44185;47.844;8.966;2022-11-04T03:16:11;95373.97;;;7.19;100.00
58385;BME280;44185;47.844;8.966;2022-11-04T03:18:45;95376.69;;;7.07;100.00
58385;BME280;44185;47.844;8.966;2022-11-04T03:21:14;95383.88;;;7.05;100.00
58385;BME280;44185;47.844;8.966;2022-11-04T03:23:41;95373.47;;;7.04;100.00
58385;BME280;44185;47.844;8.966;2022-11-04T03:26:12;95367.94;;;7.07;100.00
58385;BME280;44185;47.844;8.966;2022-11-04T03:28:43;95347.06;;;7.05;100.00
58385;BME280;44185;47.844;8.966;2022-11-04T03:31:19;95339.69;;;6.99;100.00
58385;BME280;44185;47.844;8.966;2022-11-04T03:33:47;95335.09;;;7.01;100.00
58385;BME280;44185;47.844;8.966;2022-11-04T03:36:14;95341.03;;;6.93;100.00
58385;BME280;44185;47.844;8.966;2022-11-04T03:38:40;95343.97;;;7.00;100.00
58385;BME280;44185;47.844;8.966;2022-11-04T03:41:08;95349.00;;;7.03;100.00
58385;BME280;44185;47.844;8.966;2022-11-04T03:43:37;95348.91;;;6.93;100.00
58385;BME280;44185;47.844;8.966;2022-11-04T03:46:04;95361.09;;;6.84;100.00
58385;BME280;44185;47.844;8.966;2022-11-04T03:48:31;95365.50;;;6.84;100.00
58385;BME280;44185;47.844;8.966;2022-11-04T03:50:57;95377.97;;;6.82;100.00
58385;BME280;44185;47.844;8.966;2022-11-04T03:53:23;95377.38;;;6.78;100.00
58385;BME280;44185;47.844;8.966;2022-11-04T03:56:02;95392.84;;;6.71;100.00
58385;BME280;44185;47.844;8.966;2022-11-04T03:58:38;95391.81;;;6.62;100.00
58385;BME280;44185;47.844;8.966;2022-11-04T04:01:12;95399.25;;;6.57;100.00
58385;BME280;44185;47.844;8.966;2022-11-04T04:03:49;95398.41;;;6.56;100.00
58385;BME280;44185;47.844;8.966;2022-11-04T04:06:19;95396.22;;;6.62;100.00
58385;BME280;44185;47.844;8.966;2022-11-04T04:08:51;95385.78;;;6.50;100.00
58385;BME280;44185;47.844;8.966;2022-11-04T04:11:22;95378.97;;;6.48;100.00
58385;BME280;44185;47.844;8.966;2022-11-04T04:13:58;95364.50;;;6.53;100.00
58385;BME280;44185;47.844;8.966;2022-11-04T04:16:29;95347.31;;;6.49;100.00
58385;BME280;44185;47.844;8.966;2022-11-04T04:19:01;95329.03;;;6.48;100.00
58385;BME280;44185;47.844;8.966;2022-11-04T04:21:32;95333.84;;;6.64;100.00
58385;BME280;44185;47.844;8.966;2022-11-04T04:24:02;95326.22;;;6.61;100.00
58385;BME280;44185;47.844;8.966;2022-11-04T04:26:31;95320.13;;;6.60;100.00
58385;BME280;44185;47.844;8.966;2022-11-04T04:28:59;95313.63;;;6.64;100.00
58385;BME280;44185;47.844;8.966;2022-11-04T04:31:26;95309.91;;;6.67;100.00
58385;BME280;44185;47.844;8.966;2022-11-04T04:33:53;95313.91;;;6.61;100.00
58385;BME280;44185;47.844;8.966;2022-11-04T04:36:20;95310.91;;;6.66;100.00
58385;BME280;44185;47.844;8.966;2022-11-04T04:38:45;95303.97;;;6.65;100.00
58385;BME280;44185;47.844;8.966;2022-11-04T04:41:14;95301.59;;;6.62;100.00
58385;BME280;44185;47.844;8.966;2022-11-04T04:43:41;95312.25;;;6.60;100.00
58385;BME280;44185;47.844;8.966;2022-11-04T04:46:06;95326.22;;;6.61;100.00
58385;BME280;44185;47.844;8.966;2022-11-04T04:48:32;95328.47;;;6.65;100.00
58385;BME280;44185;47.844;8.966;2022-11-04T04:50:58;95337.50;;;6.51;100.00
58385;BME280;44185;47.844;8.966;2022-11-04T04:53:25;95341.88;;;6.41;100.00
58385;BME280;44185;47.844;8.966;2022-11-04T04:55:50;95348.22;;;6.38;100.00
58385;BME280;44185;47.844;8.966;2022-11-04T04:58:16;95351.16;;;6.45;100.00
58385;BME280;44185;47.844;8.966;2022-11-04T05:00:41;95356.41;;;6.45;100.00
58385;BME280;44185;47.844;8.966;2022-11-04T05:03:06;95368.16;;;6.41;100.00
58385;BME280;44185;47.844;8.966;2022-11-04T05:05:32;95363.53;;;6.54;100.00
58385;BME280;44185;47.844;8.966;2022-11-04T05:08:03;95361.66;;;6.45;100.00
58385;BME280;44185;47.844;8.966;2022-11-04T05:10:30;95357.25;;;6.45;100.00
58385;BME280;44185;47.844;8.966;2022-11-04T05:12:55;95346.63;;;6.47;100.00
58385;BME280;44185;47.844;8.966;2022-11-04T05:15:20;95344.25;;;6.44;100.00
58385;BME280;44185;47.844;8.966;2022-11-04T05:17:46;95333.09;;;6.52;100.00
58385;BME280;44185;47.844;8.966;2022-11-04T05:20:12;95323.88;;;6.36;100.00
58385;BME280;44185;47.844;8.966;2022-11-04T05:22:37;95315.16;;;6.36;100.00
58385;BME280;44185;47.844;8.966;2022-11-04T05:25:04;95308.84;;;6.27;100.00
58385;BME280;44185;47.844;8.966;2022-11-04T05:27:31;95297.53;;;6.26;100.00
58385;BME280;44185;47.844;8.966;2022-11-04T05:29:56;95293.22;;;6.25;100.00
58385;BME280;44185;47.844;8.966;2022-11-04T05:32:22;95285.41;;;6.35;100.00
58385;BME280;44185;47.844;8.966;2022-11-04T05:34:47;95291.19;;;6.29;100.00
58385;BME280;44185;47.844;8.966;2022-11-04T05:37:13;95297.41;;;6.28;100.00
58385;BME280;44185;47.844;8.966;2022-11-04T05:39:38;95303.50;;;6.28;100.00
58385;BME280;44185;47.844;8.966;2022-11-04T05:42:03;95309.91;;;6.36;100.00
58385;BME280;44185;47.844;8.966;2022-11-04T05:44:30;95317.19;;;6.32;100.00
58385;BME280;44185;47.844;8.966;2022-11-04T05:46:56;95313.34;;;6.15;100.00
58385;BME280;44185;47.844;8.966;2022-11-04T05:49:21;95308.56;;;6.20;100.00
58385;BME280;44185;47.844;8.966;2022-11-04T05:51:47;95315.28;;;6.13;100.00
58385;BME280;44185;47.844;8.966;2022-11-04T05:54:12;95332.00;;;6.11;100.00
58385;BME280;44185;47.844;8.966;2022-11-04T05:56:37;95338.94;;;6.13;100.00
58385;BME280;44185;47.844;8.966;2022-11-04T05:59:03;95353.97;;;6.10;100.00
58385;BME280;44185;47.844;8.966;2022-11-04T06:01:32;95349.78;;;6.08;100.00
58385;BME280;44185;47.844;8.966;2022-11-04T06:03:59;95359.34;;;6.09;100.00
58385;BME280;44185;47.844;8.966;2022-11-04T06:06:26;95364.22;;;6.14;100.00
58385;BME280;44185;47.844;8.966;2022-11-04T06:08:52;95360.88;;;6.11;100.00
58385;BME280;44185;47.844;8.966;2022-11-04T06:11:18;95366.03;;;6.13;100.00
58385;BME280;44185;47.844;8.966;2022-11-04T06:13:44;95368.66;;;6.13;100.00
58385;BME280;44185;47.844;8.966;2022-11-04T06:16:10;95361.25;;;6.18;100.00
58385;BME280;44185;47.844;8.966;2022-11-04T06:18:36;95356.47;;;6.12;100.00
58385;BME280;44185;47.844;8.966;2022-11-04T06:21:16;95352.06;;;6.13;100.00
58385;BME280;44185;47.844;8.966;2022-11-04T06:23:43;95345.13;;;6.11;100.00
58385;BME280;44185;47.844;8.966;2022-11-04T06:26:09;95347.38;;;6.16;100.00
58385;BME280;44185;47.844;8.966;2022-11-04T06:28:35;95340.56;;;6.14;100.00
58385;BME280;44185;47.844;8.966;2022-11-04T06:31:02;95348.00;;;6.08;100.00
58385;BME280;44185;47.844;8.966;2022-11-04T06:33:29;95341.09;;;6.07;100.00
58385;BME280;44185;47.844;8.966;2022-11-04T06:35:57;95339.88;;;6.11;100.00
58385;BME280;44185;47.844;8.966;2022-11-04T06:38:23;95337.84;;;6.15;100.00
58385;BME280;44185;47.844;8.966;2022-11-04T06:40:48;95333.22;;;6.07;100.00
58385;BME280;44185;47.844;8.966;2022-11-04T06:43:14;95334.44;;;5.92;100.00
58385;BME280;44185;47.844;8.966;2022-11-04T06:45:39;95332.91;;;5.89;100.00
58385;BME280;44185;47.844;8.966;2022-11-04T06:48:05;95336.00;;;5.94;100.00
58385;BME280;44185;47.844;8.966;2022-11-04T06:50:31;95329.09;;;5.82;100.00
58385;BME280;44185;47.844;8.966;2022-11-04T06:52:57;95334.34;;;5.82;100.00
58385;BME280;44185;47.844;8.966;2022-11-04T06:55:23;95340.50;;;5.92;100.00
58385;BME280;44185;47.844;8.966;2022-11-04T06:57:48;95339.06;;;5.99;100.00
58385;BME280;44185;47.844;8.966;2022-11-04T07:00:14;95334.91;;;5.97;100.00
58385;BME280;44185;47.844;8.966;2022-11-04T07:02:40;95343.72;;;5.96;100.00
58385;BME280;44185;47.844;8.966;2022-11-04T07:05:06;95332.53;;;5.94;100.00
58385;BME280;44185;47.844;8.966;2022-11-04T07:07:31;95336.00;;;5.94;100.00
58385;BME280;44185;47.844;8.966;2022-11-04T07:09:58;95334.31;;;5.93;100.00
58385;BME280;44185;47.844;8.966;2022-11-04T07:12:24;95321.50;;;6.00;100.00
58385;BME280;44185;47.844;8.966;2022-11-04T07:14:50;95331.19;;;5.99;100.00
58385;BME280;44185;47.844;8.966;2022-11-04T07:17:15;95324.25;;;5.98;100.00
58385;BME280;44185;47.844;8.966;2022-11-04T07:19:40;95325.34;;;5.96;100.00
58385;BME280;44185;47.844;8.966;2022-11-04T07:22:06;95322.97;;;5.93;100.00
58385;BME280;44185;47.844;8.966;2022-11-04T07:24:31;95330.16;;;5.90;100.00
58385;BME280;44185;47.844;8.966;2022-11-04T07:26:58;95327.28;;;5.94;100.00
58385;BME280;44185;47.844;8.966;2022-11-04T07:29:24;95319.97;;;5.97;100.00
58385;BME280;44185;47.844;8.966;2022-11-04T07:31:49;95319.16;;;5.97;100.00
58385;BME280;44185;47.844;8.966;2022-11-04T07:34:14;95310.75;;;6.03;100.00
58385;BME280;44185;47.844;8.966;2022-11-04T07:36:40;95301.56;;;6.09;100.00
58385;BME280;44185;47.844;8.966;2022-11-04T07:39:05;95296.66;;;6.16;100.00
58385;BME280;44185;47.844;8.966;2022-11-04T07:41:31;95285.22;;;6.27;100.00
58385;BME280;44185;47.844;8.966;2022-11-04T07:43:57;95291.34;;;6.37;100.00
58385;BME280;44185;47.844;8.966;2022-11-04T07:46:23;95304.69;;;6.45;100.00
58385;BME280;44185;47.844;8.966;2022-11-04T07:48:49;95308.53;;;6.41;100.00
58385;BME280;44185;47.844;8.966;2022-11-04T07:51:16;95304.94;;;6.42;100.00
58385;BME280;44185;47.844;8.966;2022-11-04T07:53:42;95301.50;;;6.42;100.00
58385;BME280;44185;47.844;8.966;2022-11-04T07:56:10;95313.47;;;6.34;100.00
58385;BME280;44185;47.844;8.966;2022-11-04T07:58:36;95309.91;;;6.36;100.00
58385;BME280;44185;47.844;8.966;2022-11-04T08:01:06;95307.00;;;6.39;100.00
58385;BME280;44185;47.844;8.966;2022-11-04T08:03:31;95309.00;;;6.47;100.00
58385;BME280;44185;47.844;8.966;2022-11-04T08:05:58;95301.28;;;6.55;100.00
58385;BME280;44185;47.844;8.966;2022-11-04T08:08:24;95297.81;;;6.54;100.00
58385;BME280;44185;47.844;8.966;2022-11-04T08:10:53;95298.25;;;6.60;100.00
58385;BME280;44185;47.844;8.966;2022-11-04T08:13:18;95289.97;;;6.64;100.00
58385;BME280;44185;47.844;8.966;2022-11-04T08:15:44;95295.69;;;6.70;100.00
58385;BME280;44185;47.844;8.966;2022-11-04T08:18:10;95290.84;;;6.75;100.00
58385;BME280;44185;47.844;8.966;2022-11-04T08:20:36;95297.53;;;6.79;100.00
58385;BME280;44185;47.844;8.966;2022-11-04T08:23:02;95299.66;;;6.95;100.00
58385;BME280;44185;47.844;8.966;2022-11-04T08:25:27;95305.75;;;6.96;100.00
58385;BME280;44185;47.844;8.966;2022-11-04T08:27:53;95310.72;;;6.89;100.00
58385;BME280;44185;47.844;8.966;2022-11-04T08:30:19;95313.09;;;6.92;100.00
58385;BME280;44185;47.844;8.966;2022-11-04T08:32:44;95319.19;;;6.93;100.00
58385;BME280;44185;47.844;8.966;2022-11-04T08:35:11;95317.66;;;6.90;100.00
58385;BME280;44185;47.844;8.966;2022-11-04T08:37:37;95321.81;;;6.93;100.00
58385;BME280;44185;47.844;8.966;2022-11-04T08:40:03;95329.13;;;6.89;100.00
58385;BME280;44185;47.844;8.966;2022-11-04T08:42:29;95344.66;;;6.92;100.00
58385;BME280;44185;47.844;8.966;2022-11-04T08:44:54;95351.28;;;6.96;100.00
58385;BME280;44185;47.844;8.966;2022-11-04T08:47:20;95353.25;;;7.04;100.00
58385;BME280;44185;47.844;8.966;2022-11-04T08:49:45;95345.53;;;7.12;100.00
58385;BME280;44185;47.844;8.966;2022-11-04T08:52:12;95350.72;;;7.24;100.00
58385;BME280;44185;47.844;8.966;2022-11-04T08:54:37;95352.25;;;7.27;100.00
58385;BME280;44185;47.844;8.966;2022-11-04T08:57:03;95352.84;;;7.40;100.00
58385;BME280;44185;47.844;8.966;2022-11-04T08:59:29;95358.41;;;7.47;100.00
58385;BME280;44185;47.844;8.966;2022-11-04T09:01:54;95350.91;;;7.42;100.00
58385;BME280;44185;47.844;8.966;2022-11-04T09:04:20;95352.19;;;7.48;100.00
58385;BME280;44185;47.844;8.966;2022-11-04T09:06:45;95353.69;;;7.51;100.00
58385;BME280;44185;47.844;8.966;2022-11-04T09:09:14;95348.56;;;7.59;100.00
58385;BME280;44185;47.844;8.966;2022-11-04T09:11:41;95336.97;;;7.72;100.00
58385;BME280;44185;47.844;8.966;2022-11-04T09:14:07;95337.25;;;7.78;100.00
58385;BME280;44185;47.844;8.966;2022-11-04T09:16:35;95328.78;;;7.95;100.00
58385;BME280;44185;47.844;8.966;2022-11-04T09:19:01;95315.91;;;7.82;100.00
58385;BME280;44185;47.844;8.966;2022-11-04T09:21:27;95318.53;;;7.92;100.00
58385;BME280;44185;47.844;8.966;2022-11-04T09:23:53;95306.47;;;8.09;100.00
58385;BME280;44185;47.844;8.966;2022-11-04T09:26:21;95296.75;;;8.19;100.00
58385;BME280;44185;47.844;8.966;2022-11-04T09:28:46;95298.53;;;8.29;100.00
58385;BME280;44185;47.844;8.966;2022-11-04T09:31:14;95295.06;;;8.28;100.00
58385;BME280;44185;47.844;8.966;2022-11-04T09:33:40;95296.97;;;8.36;100.00
58385;BME280;44185;47.844;8.966;2022-11-04T09:36:06;95294.38;;;8.16;100.00
58385;BME280;44185;47.844;8.966;2022-11-04T09:38:31;95299.78;;;8.34;100.00
58385;BME280;44185;47.844;8.966;2022-11-04T09:40:59;95299.91;;;8.43;100.00
58385;BME280;44185;47.844;8.966;2022-11-04T09:43:37;95306.56;;;8.37;100.00
58385;BME280;44185;47.844;8.966;2022-11-04T09:46:04;95303.66;;;8.40;100.00
58385;BME280;44185;47.844;8.966;2022-11-04T09:48:32;95301.69;;;8.42;100.00
58385;BME280;44185;47.844;8.966;2022-11-04T09:51:00;95302.38;;;8.44;100.00
58385;BME280;44185;47.844;8.966;2022-11-04T09:53:31;95300.28;;;8.58;100.00
58385;BME280;44185;47.844;8.966;2022-11-04T09:56:00;95302.19;;;8.76;100.00
58385;BME280;44185;47.844;8.966;2022-11-04T09:58:32;95301.78;;;8.81;100.00
58385;BME280;44185;47.844;8.966;2022-11-04T10:01:03;95307.03;;;8.81;100.00
58385;BME280;44185;47.844;8.966;2022-11-04T10:03:41;95304.97;;;8.74;100.00
58385;BME280;44185;47.844;8.966;2022-11-04T10:06:23;95303.78;;;8.49;100.00
58385;BME280;44185;47.844;8.966;2022-11-04T10:09:07;95297.38;;;8.51;100.00
58385;BME280;44185;47.844;8.966;2022-11-04T10:11:41;95296.41;;;8.62;100.00
58385;BME280;44185;47.844;8.966;2022-11-04T10:14:21;95296.34;;;8.82;100.00
58385;BME280;44185;47.844;8.966;2022-11-04T10:17:01;95294.66;;;8.91;100.00
58385;BME280;44185;47.844;8.966;2022-11-04T10:19:39;95295.47;;;8.92;100.00
58385;BME280;44185;47.844;8.966;2022-11-04T10:22:15;95293.75;;;8.72;100.00
58385;BME280;44185;47.844;8.966;2022-11-04T10:24:51;95287.19;;;8.86;100.00
58385;BME280;44185;47.844;8.966;2022-11-04T10:27:23;95288.63;;;8.99;100.00
58385;BME280;44185;47.844;8.966;2022-11-04T10:29:51;95293.38;;;8.95;100.00
58385;BME280;44185;47.844;8.966;2022-11-04T10:32:21;95283.53;;;8.87;100.00
58385;BME280;44185;47.844;8.966;2022-11-04T10:34:52;95282.13;;;8.93;100.00
58385;BME280;44185;47.844;8.966;2022-11-04T10:37:20;95277.88;;;9.10;100.00
58385;BME280;44185;47.844;8.966;2022-11-04T10:39:46;95282.41;;;9.18;100.00
58385;BME280;44185;47.844;8.966;2022-11-04T10:42:14;95282.28;;;9.20;100.00
58385;BME280;44185;47.844;8.966;2022-11-04T10:44:40;95279.44;;;9.03;100.00
58385;BME280;44185;47.844;8.966;2022-11-04T10:47:13;95273.16;;;8.86;100.00
58385;BME280;44185;47.844;8.966;2022-11-04T10:49:52;95269.38;;;8.88;100.00
58385;BME280;44185;47.844;8.966;2022-11-04T10:52:20;95270.06;;;8.90;100.00
58385;BME280;44185;47.844;8.966;2022-11-04T10:54:47;95270.00;;;9.00;100.00
58385;BME280;44185;47.844;8.966;2022-11-04T10:57:16;95259.13;;;8.85;100.00
58385;BME280;44185;47.844;8.966;2022-11-04T10:59:49;95253.56;;;8.88;100.00
58385;BME280;44185;47.844;8.966;2022-11-04T11:02:15;95250.66;;;9.10;100.00
58385;BME280;44185;47.844;8.966;2022-11-04T11:04:42;95253.44;;;9.37;100.00
58385;BME280;44185;47.844;8.966;2022-11-04T11:07:11;95252.00;;;9.61;100.00
58385;BME280;44185;47.844;8.966;2022-11-04T11:09:42;95246.28;;;9.65;100.00
58385;BME280;44185;47.844;8.966;2022-11-04T11:12:18;95235.47;;;9.59;97.83
58385;BME280;44185;47.844;8.966;2022-11-04T11:14:44;95237.50;;;9.65;99.48
58385;BME280;44185;47.844;8.966;2022-11-04T11:17:21;95241.06;;;9.74;100.00
58385;BME280;44185;47.844;8.966;2022-11-04T11:19:49;95239.56;;;9.71;99.48
58385;BME280;44185;47.844;8.966;2022-11-04T11:22:34;95239.06;;;9.94;100.00
58385;BME280;44185;47.844;8.966;2022-11-04T11:25:19;95229.38;;;10.30;96.31
58385;BME280;44185;47.844;8.966;2022-11-04T11:27:47;95223.44;;;10.28;93.78
58385;BME280;44185;47.844;8.966;2022-11-04T11:30:25;95220.13;;;10.52;94.83
58385;BME280;44185;47.844;8.966;2022-11-04T11:32:53;95219.97;;;10.89;96.48
58385;BME280;44185;47.844;8.966;2022-11-04T11:35:21;95224.06;;;10.83;92.40
58385;BME280;44185;47.844;8.966;2022-11-04T11:37:49;95223.44;;;10.89;95.21
58385;BME280;44185;47.844;8.966;2022-11-04T11:40:26;95226.31;;;11.05;95.04
58385;BME280;44185;47.844;8.966;2022-11-04T11:42:52;95220.91;;;11.15;90.79
58385;BME280;44185;47.844;8.966;2022-11-04T11:45:19;95217.13;;;11.42;89.13
58385;BME280;44185;47.844;8.966;2022-11-04T11:47:46;95216.94;;;11.19;86.15
58385;BME280;44185;47.844;8.966;2022-11-04T11:50:14;95219.38;;;11.04;90.46
58385;BME280;44185;47.844;8.966;2022-11-04T11:52:41;95219.50;;;11.02;88.16
58385;BME280;44185;47.844;8.966;2022-11-04T11:55:14;95216.63;;;11.39;85.24
58385;BME280;44185;47.844;8.966;2022-11-04T11:57:46;95215.19;;;11.61;89.91
58385;BME280;44185;47.844;8.966;2022-11-04T12:00:14;95218.66;;;11.70;87.52
58385;BME280;44185;47.844;8.966;2022-11-04T12:02:46;95218.16;;;11.58;89.20
58385;BME280;44185;47.844;8.966;2022-11-04T12:05:14;95212.13;;;11.14;87.16
58385;BME280;44185;47.844;8.966;2022-11-04T12:07:48;95217.63;;;10.86;86.92
58385;BME280;44185;47.844;8.966;2022-11-04T12:10:24;95224.81;;;10.67;88.68
58385;BME280;44185;47.844;8.966;2022-11-04T12:13:09;95219.75;;;10.74;91.74
58385;BME280;44185;47.844;8.966;2022-11-04T12:15:49;95227.72;;;10.82;89.77
58385;BME280;44185;47.844;8.966;2022-11-04T12:21:22;95218.69;;;10.93;90.06
58385;BME280;44185;47.844;8.966;2022-11-04T12:23:49;95220.75;;;10.81;85.40
58385;BME280;44185;47.844;8.966;2022-11-04T12:26:27;95214.94;;;10.69;87.10
58385;BME280;44185;47.844;8.966;2022-11-04T12:29:22;95232.16;;;10.73;86.35
58385;BME280;44185;47.844;8.966;2022-11-04T12:32:00;95221.22;;;10.68;84.06
58385;BME280;44185;47.844;8.966;2022-11-04T12:34:36;95233.94;;;10.73;84.26
58385;BME280;44185;47.844;8.966;2022-11-04T12:37:13;95239.06;;;10.66;82.24
58385;BME280;44185;47.844;8.966;2022-11-04T12:39:51;95236.72;;;10.36;82.23
58385;BME280;44185;47.844;8.966;2022-11-04T12:42:29;95240.06;;;10.20;84.66
58385;BME280;44185;47.844;8.966;2022-11-04T12:45:04;95240.06;;;10.20;87.03
58385;BME280;44185;47.844;8.966;2022-11-04T12:47:36;95246.38;;;10.19;84.88
58385;BME280;44185;47.844;8.966;2022-11-04T12:50:20;95234.28;;;10.16;85.97
58385;BME280;44185;47.844;8.966;2022-11-04T12:53:09;95231.38;;;10.28;85.66
58385;BME280;44185;47.844;8.966;2022-11-04T12:55:46;95236.03;;;10.34;84.07
58385;BME280;44185;47.844;8.966;2022-11-04T12:58:28;95239.25;;;10.46;88.72
58385;BME280;44185;47.844;8.966;2022-11-04T13:01:00;95241.31;;;10.52;86.41
58385;BME280;44185;47.844;8.966;2022-11-04T13:03:31;95241.75;;;10.48;88.46
58385;BME280;44185;47.844;8.966;2022-11-04T13:06:01;95236.72;;;10.36;89.64
58385;BME280;44185;47.844;8.966;2022-11-04T13:08:33;95236.75;;;10.44;91.02
58385;BME280;44185;47.844;8.966;2022-11-04T13:11:05;95242.53;;;10.40;89.96
58385;BME280;44185;47.844;8.966;2022-11-04T13:13:36;95246.56;;;10.26;88.43
58385;BME280;44185;47.844;8.966;2022-11-04T13:16:05;95238.44;;;10.19;89.93